sensor_id;sensor_type;location;lat;lon;timestamp;temperature;humidity
40085;DHT22;25786;51.504;7.344;2022-08-30T00:00:21;19.00;70.40
40085;DHT22;25786;51.504;7.344;2022-08-30T00:03:07;19.00;69.70
40085;DHT22;25786;51.504;7.344;2022-08-30T00:05:33;18.80;71.30
40085;DHT22;25786;51.504;7.344;2022-08-30T00:07:58;18.80;71.00
40085;DHT22;25786;51.504;7.344;2022-08-30T00:10:24;18.80;70.90
40085;DHT22;25786;51.504;7.344;2022-08-30T00:12:50;18.60;71.70
40085;DHT22;25786;51.504;7.344;2022-08-30T00:15:16;18.80;71.20
40085;DHT22;25786;51.504;7.344;2022-08-30T00:17:42;18.80;71.10
40085;DHT22;25786;51.504;7.344;2022-08-30T00:20:09;18.70;71.30
40085;DHT22;25786;51.504;7.344;2022-08-30T00:22:36;18.80;71.10
40085;DHT22;25786;51.504;7.344;2022-08-30T00:25:02;18.70;71.40
40085;DHT22;25786;51.504;7.344;2022-08-30T00:27:27;18.80;70.80
40085;DHT22;25786;51.504;7.344;2022-08-30T00:29:53;18.90;70.50
40085;DHT22;25786;51.504;7.344;2022-08-30T00:32:19;18.90;70.60
40085;DHT22;25786;51.504;7.344;2022-08-30T00:34:49;18.70;71.00
40085;DHT22;25786;51.504;7.344;2022-08-30T00:37:15;18.60;71.90
40085;DHT22;25786;51.504;7.344;2022-08-30T00:39:41;18.80;71.20
40085;DHT22;25786;51.504;7.344;2022-08-30T00:42:07;18.70;71.50
40085;DHT22;25786;51.504;7.344;2022-08-30T00:44:32;18.60;71.50
40085;DHT22;25786;51.504;7.344;2022-08-30T00:46:58;18.50;72.40
40085;DHT22;25786;51.504;7.344;2022-08-30T00:49:25;18.60;71.60
40085;DHT22;25786;51.504;7.344;2022-08-30T00:51:50;18.60;71.60
40085;DHT22;25786;51.504;7.344;2022-08-30T00:54:17;18.50;71.70
40085;DHT22;25786;51.504;7.344;2022-08-30T00:56:43;18.50;72.00
40085;DHT22;25786;51.504;7.344;2022-08-30T00:59:09;18.70;71.20
40085;DHT22;25786;51.504;7.344;2022-08-30T01:01:35;18.70;71.20
40085;DHT22;25786;51.504;7.344;2022-08-30T01:04:02;18.70;71.30
40085;DHT22;25786;51.504;7.344;2022-08-30T01:06:28;18.80;71.10
40085;DHT22;25786;51.504;7.344;2022-08-30T01:08:53;18.80;70.60
40085;DHT22;25786;51.504;7.344;2022-08-30T01:11:20;18.60;71.80
40085;DHT22;25786;51.504;7.344;2022-08-30T01:13:46;18.50;72.30
40085;DHT22;25786;51.504;7.344;2022-08-30T01:16:12;18.40;72.90
40085;DHT22;25786;51.504;7.344;2022-08-30T01:18:38;18.30;73.10
40085;DHT22;25786;51.504;7.344;2022-08-30T01:21:09;18.20;72.90
40085;DHT22;25786;51.504;7.344;2022-08-30T01:23:39;18.20;73.10
40085;DHT22;25786;51.504;7.344;2022-08-30T01:26:05;18.20;73.40
40085;DHT22;25786;51.504;7.344;2022-08-30T01:28:32;18.40;72.50
40085;DHT22;25786;51.504;7.344;2022-08-30T01:30:57;18.20;72.90
40085;DHT22;25786;51.504;7.344;2022-08-30T01:33:26;18.30;72.60
40085;DHT22;25786;51.504;7.344;2022-08-30T01:35:56;18.30;72.70
40085;DHT22;25786;51.504;7.344;2022-08-30T01:38:24;18.50;71.80
40085;DHT22;25786;51.504;7.344;2022-08-30T01:40:55;18.30;72.50
40085;DHT22;25786;51.504;7.344;2022-08-30T01:43:20;18.30;73.00
40085;DHT22;25786;51.504;7.344;2022-08-30T01:45:46;18.20;72.90
40085;DHT22;25786;51.504;7.344;2022-08-30T01:48:11;18.30;72.90
40085;DHT22;25786;51.504;7.344;2022-08-30T01:50:37;18.30;72.50
40085;DHT22;25786;51.504;7.344;2022-08-30T01:53:03;18.40;72.70
40085;DHT22;25786;51.504;7.344;2022-08-30T01:55:28;18.20;72.80
40085;DHT22;25786;51.504;7.344;2022-08-30T01:57:54;18.10;73.30
40085;DHT22;25786;51.504;7.344;2022-08-30T02:00:19;18.00;74.00
40085;DHT22;25786;51.504;7.344;2022-08-30T02:02:45;18.00;73.40
40085;DHT22;25786;51.504;7.344;2022-08-30T02:05:10;17.90;73.90
40085;DHT22;25786;51.504;7.344;2022-08-30T02:07:36;18.10;74.00
40085;DHT22;25786;51.504;7.344;2022-08-30T02:10:02;18.10;73.50
40085;DHT22;25786;51.504;7.344;2022-08-30T02:12:28;18.10;73.60
40085;DHT22;25786;51.504;7.344;2022-08-30T02:14:54;18.30;72.50
40085;DHT22;25786;51.504;7.344;2022-08-30T02:17:20;18.30;72.50
40085;DHT22;25786;51.504;7.344;2022-08-30T02:19:46;18.10;73.10
40085;DHT22;25786;51.504;7.344;2022-08-30T02:22:11;18.40;72.40
40085;DHT22;25786;51.504;7.344;2022-08-30T02:24:37;18.30;72.70
40085;DHT22;25786;51.504;7.344;2022-08-30T02:27:02;18.40;72.30
40085;DHT22;25786;51.504;7.344;2022-08-30T02:29:28;18.30;72.70
40085;DHT22;25786;51.504;7.344;2022-08-30T02:31:53;18.30;72.20
40085;DHT22;25786;51.504;7.344;2022-08-30T02:34:19;18.10;73.00
40085;DHT22;25786;51.504;7.344;2022-08-30T02:36:45;18.10;73.30
40085;DHT22;25786;51.504;7.344;2022-08-30T02:39:11;18.10;73.00
40085;DHT22;25786;51.504;7.344;2022-08-30T02:41:37;17.90;74.10
40085;DHT22;25786;51.504;7.344;2022-08-30T02:44:03;17.80;74.70
40085;DHT22;25786;51.504;7.344;2022-08-30T02:46:29;18.00;73.80
40085;DHT22;25786;51.504;7.344;2022-08-30T02:48:54;17.80;74.00
40085;DHT22;25786;51.504;7.344;2022-08-30T02:51:20;17.80;74.00
40085;DHT22;25786;51.504;7.344;2022-08-30T02:53:45;17.80;74.20
40085;DHT22;25786;51.504;7.344;2022-08-30T02:56:12;17.80;74.10
40085;DHT22;25786;51.504;7.344;2022-08-30T02:58:38;17.70;74.60
40085;DHT22;25786;51.504;7.344;2022-08-30T03:01:06;17.60;74.90
40085;DHT22;25786;51.504;7.344;2022-08-30T03:03:32;17.50;74.80
40085;DHT22;25786;51.504;7.344;2022-08-30T03:05:57;17.60;74.60
40085;DHT22;25786;51.504;7.344;2022-08-30T03:08:23;17.60;74.60
40085;DHT22;25786;51.504;7.344;2022-08-30T03:10:48;17.50;75.20
40085;DHT22;25786;51.504;7.344;2022-08-30T03:13:14;17.50;75.50
40085;DHT22;25786;51.504;7.344;2022-08-30T03:15:40;17.30;75.30
40085;DHT22;25786;51.504;7.344;2022-08-30T03:18:06;17.30;76.00
40085;DHT22;25786;51.504;7.344;2022-08-30T03:20:32;17.10;76.40
40085;DHT22;25786;51.504;7.344;2022-08-30T03:22:59;17.30;75.90
40085;DHT22;25786;51.504;7.344;2022-08-30T03:25:25;17.60;74.90
40085;DHT22;25786;51.504;7.344;2022-08-30T03:27:50;17.50;74.90
40085;DHT22;25786;51.504;7.344;2022-08-30T03:30:16;17.50;75.10
40085;DHT22;25786;51.504;7.344;2022-08-30T03:32:42;17.60;74.80
40085;DHT22;25786;51.504;7.344;2022-08-30T03:35:08;17.30;75.40
40085;DHT22;25786;51.504;7.344;2022-08-30T03:37:34;17.30;76.00
40085;DHT22;25786;51.504;7.344;2022-08-30T03:40:00;17.30;75.80
40085;DHT22;25786;51.504;7.344;2022-08-30T03:42:25;17.20;76.10
40085;DHT22;25786;51.504;7.344;2022-08-30T03:44:51;16.90;76.60
40085;DHT22;25786;51.504;7.344;2022-08-30T03:47:16;16.80;77.30
40085;DHT22;25786;51.504;7.344;2022-08-30T03:49:42;16.80;77.60
40085;DHT22;25786;51.504;7.344;2022-08-30T03:52:07;16.80;78.20
40085;DHT22;25786;51.504;7.344;2022-08-30T03:54:33;17.10;76.60
40085;DHT22;25786;51.504;7.344;2022-08-30T03:56:58;16.80;77.20
40085;DHT22;25786;51.504;7.344;2022-08-30T03:59:24;16.70;77.80
40085;DHT22;25786;51.504;7.344;2022-08-30T04:01:49;16.90;77.30
40085;DHT22;25786;51.504;7.344;2022-08-30T04:04:15;16.90;77.60
40085;DHT22;25786;51.504;7.344;2022-08-30T04:06:40;16.90;77.90
40085;DHT22;25786;51.504;7.344;2022-08-30T04:09:06;16.90;77.60
40085;DHT22;25786;51.504;7.344;2022-08-30T04:11:31;17.10;77.30
40085;DHT22;25786;51.504;7.344;2022-08-30T04:13:57;17.10;76.50
40085;DHT22;25786;51.504;7.344;2022-08-30T04:16:23;17.10;77.00
40085;DHT22;25786;51.504;7.344;2022-08-30T04:18:48;17.00;77.20
40085;DHT22;25786;51.504;7.344;2022-08-30T04:21:14;17.00;77.30
40085;DHT22;25786;51.504;7.344;2022-08-30T04:23:40;17.20;76.10
40085;DHT22;25786;51.504;7.344;2022-08-30T04:26:06;17.10;76.50
40085;DHT22;25786;51.504;7.344;2022-08-30T04:28:31;17.00;77.40
40085;DHT22;25786;51.504;7.344;2022-08-30T04:30:59;17.20;76.10
40085;DHT22;25786;51.504;7.344;2022-08-30T04:33:25;17.00;76.30
40085;DHT22;25786;51.504;7.344;2022-08-30T04:35:51;17.00;77.00
40085;DHT22;25786;51.504;7.344;2022-08-30T04:38:16;17.00;76.80
40085;DHT22;25786;51.504;7.344;2022-08-30T04:40:43;16.90;77.10
40085;DHT22;25786;51.504;7.344;2022-08-30T04:43:09;17.00;76.70
40085;DHT22;25786;51.504;7.344;2022-08-30T04:45:36;16.80;77.30
40085;DHT22;25786;51.504;7.344;2022-08-30T04:48:02;16.70;77.80
40085;DHT22;25786;51.504;7.344;2022-08-30T04:50:27;16.80;77.60
40085;DHT22;25786;51.504;7.344;2022-08-30T04:52:53;16.80;77.40
40085;DHT22;25786;51.504;7.344;2022-08-30T04:55:18;16.70;77.80
40085;DHT22;25786;51.504;7.344;2022-08-30T04:57:44;16.60;78.00
40085;DHT22;25786;51.504;7.344;2022-08-30T05:00:10;16.60;78.10
40085;DHT22;25786;51.504;7.344;2022-08-30T05:02:37;16.60;78.10
40085;DHT22;25786;51.504;7.344;2022-08-30T05:05:02;16.70;77.60
40085;DHT22;25786;51.504;7.344;2022-08-30T05:07:46;16.60;78.10
40085;DHT22;25786;51.504;7.344;2022-08-30T05:10:12;16.50;78.60
40085;DHT22;25786;51.504;7.344;2022-08-30T05:12:38;16.60;77.90
40085;DHT22;25786;51.504;7.344;2022-08-30T05:15:04;16.60;78.30
40085;DHT22;25786;51.504;7.344;2022-08-30T05:17:30;16.70;78.00
40085;DHT22;25786;51.504;7.344;2022-08-30T05:19:56;16.70;78.00
40085;DHT22;25786;51.504;7.344;2022-08-30T05:22:21;16.70;77.90
40085;DHT22;25786;51.504;7.344;2022-08-30T05:24:47;16.70;78.20
40085;DHT22;25786;51.504;7.344;2022-08-30T05:27:13;16.40;79.00
40085;DHT22;25786;51.504;7.344;2022-08-30T05:29:39;16.50;78.70
40085;DHT22;25786;51.504;7.344;2022-08-30T05:32:04;16.70;78.10
40085;DHT22;25786;51.504;7.344;2022-08-30T05:34:29;16.60;78.70
40085;DHT22;25786;51.504;7.344;2022-08-30T05:36:55;16.80;78.20
40085;DHT22;25786;51.504;7.344;2022-08-30T05:39:20;16.70;78.60
40085;DHT22;25786;51.504;7.344;2022-08-30T05:41:46;16.70;78.60
40085;DHT22;25786;51.504;7.344;2022-08-30T05:44:11;16.60;79.20
40085;DHT22;25786;51.504;7.344;2022-08-30T05:46:37;16.80;78.30
40085;DHT22;25786;51.504;7.344;2022-08-30T05:49:04;16.70;78.60
40085;DHT22;25786;51.504;7.344;2022-08-30T05:51:30;16.70;78.70
40085;DHT22;25786;51.504;7.344;2022-08-30T05:53:57;16.70;78.30
40085;DHT22;25786;51.504;7.344;2022-08-30T05:56:24;16.80;78.20
40085;DHT22;25786;51.504;7.344;2022-08-30T05:58:50;16.90;78.20
40085;DHT22;25786;51.504;7.344;2022-08-30T06:01:19;16.90;78.10
40085;DHT22;25786;51.504;7.344;2022-08-30T06:03:45;16.80;78.40
40085;DHT22;25786;51.504;7.344;2022-08-30T06:06:11;16.90;77.80
40085;DHT22;25786;51.504;7.344;2022-08-30T06:08:36;16.80;78.30
40085;DHT22;25786;51.504;7.344;2022-08-30T06:11:01;16.70;78.90
40085;DHT22;25786;51.504;7.344;2022-08-30T06:13:27;16.70;79.70
40085;DHT22;25786;51.504;7.344;2022-08-30T06:15:52;16.70;79.10
40085;DHT22;25786;51.504;7.344;2022-08-30T06:18:18;16.80;78.80
40085;DHT22;25786;51.504;7.344;2022-08-30T06:20:44;17.00;78.40
40085;DHT22;25786;51.504;7.344;2022-08-30T06:23:11;17.00;78.20
40085;DHT22;25786;51.504;7.344;2022-08-30T06:25:37;16.80;79.20
40085;DHT22;25786;51.504;7.344;2022-08-30T06:28:03;16.90;79.00
40085;DHT22;25786;51.504;7.344;2022-08-30T06:30:29;17.10;78.20
40085;DHT22;25786;51.504;7.344;2022-08-30T06:32:55;16.90;78.80
40085;DHT22;25786;51.504;7.344;2022-08-30T06:35:20;17.10;78.40
40085;DHT22;25786;51.504;7.344;2022-08-30T06:37:46;17.30;77.40
40085;DHT22;25786;51.504;7.344;2022-08-30T06:40:12;17.20;78.10
40085;DHT22;25786;51.504;7.344;2022-08-30T06:42:38;17.20;78.10
40085;DHT22;25786;51.504;7.344;2022-08-30T06:45:04;17.10;78.60
40085;DHT22;25786;51.504;7.344;2022-08-30T06:47:30;17.10;78.40
40085;DHT22;25786;51.504;7.344;2022-08-30T06:49:55;17.10;78.80
40085;DHT22;25786;51.504;7.344;2022-08-30T06:52:21;17.00;78.80
40085;DHT22;25786;51.504;7.344;2022-08-30T06:54:46;17.00;79.10
40085;DHT22;25786;51.504;7.344;2022-08-30T06:57:12;17.20;79.00
40085;DHT22;25786;51.504;7.344;2022-08-30T06:59:38;17.20;78.40
40085;DHT22;25786;51.504;7.344;2022-08-30T07:02:03;17.30;78.50
40085;DHT22;25786;51.504;7.344;2022-08-30T07:04:29;17.30;78.30
40085;DHT22;25786;51.504;7.344;2022-08-30T07:06:54;17.20;78.40
40085;DHT22;25786;51.504;7.344;2022-08-30T07:09:20;17.50;77.60
40085;DHT22;25786;51.504;7.344;2022-08-30T07:11:45;17.60;77.10
40085;DHT22;25786;51.504;7.344;2022-08-30T07:14:11;17.60;77.50
40085;DHT22;25786;51.504;7.344;2022-08-30T07:16:38;17.60;77.30
40085;DHT22;25786;51.504;7.344;2022-08-30T07:19:04;17.60;77.40
40085;DHT22;25786;51.504;7.344;2022-08-30T07:21:34;17.70;76.90
40085;DHT22;25786;51.504;7.344;2022-08-30T07:24:01;17.90;75.80
40085;DHT22;25786;51.504;7.344;2022-08-30T07:26:37;17.90;76.60
40085;DHT22;25786;51.504;7.344;2022-08-30T07:29:03;17.70;77.00
40085;DHT22;25786;51.504;7.344;2022-08-30T07:31:29;17.60;77.80
40085;DHT22;25786;51.504;7.344;2022-08-30T07:33:54;17.70;77.40
40085;DHT22;25786;51.504;7.344;2022-08-30T07:36:20;17.70;77.70
40085;DHT22;25786;51.504;7.344;2022-08-30T07:38:46;17.80;77.90
40085;DHT22;25786;51.504;7.344;2022-08-30T07:41:16;18.20;75.80
40085;DHT22;25786;51.504;7.344;2022-08-30T07:43:43;18.10;76.60
40085;DHT22;25786;51.504;7.344;2022-08-30T07:46:08;18.10;76.70
40085;DHT22;25786;51.504;7.344;2022-08-30T07:48:34;18.10;76.60
40085;DHT22;25786;51.504;7.344;2022-08-30T07:51:00;18.10;77.00
40085;DHT22;25786;51.504;7.344;2022-08-30T07:53:25;18.20;76.00
40085;DHT22;25786;51.504;7.344;2022-08-30T07:55:51;18.40;75.60
40085;DHT22;25786;51.504;7.344;2022-08-30T07:58:16;18.50;75.30
40085;DHT22;25786;51.504;7.344;2022-08-30T08:00:42;18.50;75.80
40085;DHT22;25786;51.504;7.344;2022-08-30T08:03:07;18.50;75.60
40085;DHT22;25786;51.504;7.344;2022-08-30T08:05:38;18.60;74.90
40085;DHT22;25786;51.504;7.344;2022-08-30T08:08:03;18.80;73.70
40085;DHT22;25786;51.504;7.344;2022-08-30T08:10:30;18.90;74.00
40085;DHT22;25786;51.504;7.344;2022-08-30T08:12:55;18.80;74.20
40085;DHT22;25786;51.504;7.344;2022-08-30T08:15:20;18.60;74.60
40085;DHT22;25786;51.504;7.344;2022-08-30T08:17:46;18.60;75.10
40085;DHT22;25786;51.504;7.344;2022-08-30T08:20:11;18.80;73.80
40085;DHT22;25786;51.504;7.344;2022-08-30T08:22:37;19.00;73.90
40085;DHT22;25786;51.504;7.344;2022-08-30T08:25:02;19.10;73.00
40085;DHT22;25786;51.504;7.344;2022-08-30T08:27:28;19.20;73.00
40085;DHT22;25786;51.504;7.344;2022-08-30T08:29:54;19.30;72.30
40085;DHT22;25786;51.504;7.344;2022-08-30T08:32:19;19.20;73.70
40085;DHT22;25786;51.504;7.344;2022-08-30T08:34:44;19.30;72.50
40085;DHT22;25786;51.504;7.344;2022-08-30T08:37:10;19.30;72.10
40085;DHT22;25786;51.504;7.344;2022-08-30T08:39:35;19.20;72.70
40085;DHT22;25786;51.504;7.344;2022-08-30T08:45:04;19.50;71.40
40085;DHT22;25786;51.504;7.344;2022-08-30T08:50:12;19.60;71.40
40085;DHT22;25786;51.504;7.344;2022-08-30T08:55:26;19.50;72.80
40085;DHT22;25786;51.504;7.344;2022-08-30T08:57:54;19.60;71.90
40085;DHT22;25786;51.504;7.344;2022-08-30T09:00:20;19.50;72.50
40085;DHT22;25786;51.504;7.344;2022-08-30T09:02:47;19.70;71.70
40085;DHT22;25786;51.504;7.344;2022-08-30T09:05:18;19.80;71.10
40085;DHT22;25786;51.504;7.344;2022-08-30T09:07:48;19.80;70.40
40085;DHT22;25786;51.504;7.344;2022-08-30T09:10:14;20.00;70.20
40085;DHT22;25786;51.504;7.344;2022-08-30T09:12:40;19.90;71.40
40085;DHT22;25786;51.504;7.344;2022-08-30T09:15:23;20.10;69.80
40085;DHT22;25786;51.504;7.344;2022-08-30T09:20:33;20.00;70.70
40085;DHT22;25786;51.504;7.344;2022-08-30T09:23:10;20.10;69.80
40085;DHT22;25786;51.504;7.344;2022-08-30T09:25:51;20.20;69.50
40085;DHT22;25786;51.504;7.344;2022-08-30T09:28:21;20.20;69.50
40085;DHT22;25786;51.504;7.344;2022-08-30T09:33:52;20.50;68.70
40085;DHT22;25786;51.504;7.344;2022-08-30T09:36:20;20.70;67.90
40085;DHT22;25786;51.504;7.344;2022-08-30T09:38:47;20.60;67.40
40085;DHT22;25786;51.504;7.344;2022-08-30T09:41:34;20.60;68.20
40085;DHT22;25786;51.504;7.344;2022-08-30T09:44:06;20.60;68.40
40085;DHT22;25786;51.504;7.344;2022-08-30T09:46:31;20.80;68.30
40085;DHT22;25786;51.504;7.344;2022-08-30T09:48:57;20.70;67.60
40085;DHT22;25786;51.504;7.344;2022-08-30T09:51:27;21.00;67.60
40085;DHT22;25786;51.504;7.344;2022-08-30T09:56:51;21.20;65.40
40085;DHT22;25786;51.504;7.344;2022-08-30T09:59:32;21.10;66.00
40085;DHT22;25786;51.504;7.344;2022-08-30T10:04:51;21.10;66.30
40085;DHT22;25786;51.504;7.344;2022-08-30T10:07:24;21.00;66.50
40085;DHT22;25786;51.504;7.344;2022-08-30T10:15:13;21.30;65.30
40085;DHT22;25786;51.504;7.344;2022-08-30T10:17:53;21.40;65.20
40085;DHT22;25786;51.504;7.344;2022-08-30T10:20:33;21.60;64.70
40085;DHT22;25786;51.504;7.344;2022-08-30T10:25:27;21.50;64.80
40085;DHT22;25786;51.504;7.344;2022-08-30T10:28:02;21.60;63.60
40085;DHT22;25786;51.504;7.344;2022-08-30T10:30:29;21.60;64.50
40085;DHT22;25786;51.504;7.344;2022-08-30T10:32:59;21.80;63.50
40085;DHT22;25786;51.504;7.344;2022-08-30T10:35:27;21.80;63.40
40085;DHT22;25786;51.504;7.344;2022-08-30T10:38:07;22.00;62.50
40085;DHT22;25786;51.504;7.344;2022-08-30T10:40:35;22.00;63.10
40085;DHT22;25786;51.504;7.344;2022-08-30T10:43:32;22.00;62.60
40085;DHT22;25786;51.504;7.344;2022-08-30T10:46:01;22.10;62.70
40085;DHT22;25786;51.504;7.344;2022-08-30T10:48:36;22.20;62.10
40085;DHT22;25786;51.504;7.344;2022-08-30T10:51:05;22.10;61.90
40085;DHT22;25786;51.504;7.344;2022-08-30T10:53:39;22.20;61.20
40085;DHT22;25786;51.504;7.344;2022-08-30T10:56:08;22.30;61.40
40085;DHT22;25786;51.504;7.344;2022-08-30T10:58:38;22.10;63.20
40085;DHT22;25786;51.504;7.344;2022-08-30T11:04:01;22.40;61.90
40085;DHT22;25786;51.504;7.344;2022-08-30T11:12:06;22.30;61.00
40085;DHT22;25786;51.504;7.344;2022-08-30T11:14:39;22.30;61.70
40085;DHT22;25786;51.504;7.344;2022-08-30T11:17:05;22.50;60.80
40085;DHT22;25786;51.504;7.344;2022-08-30T11:19:46;22.50;60.80
40085;DHT22;25786;51.504;7.344;2022-08-30T11:22:17;22.50;60.60
40085;DHT22;25786;51.504;7.344;2022-08-30T11:38:10;22.70;58.90
40085;DHT22;25786;51.504;7.344;2022-08-30T11:40:45;22.70;58.80
40085;DHT22;25786;51.504;7.344;2022-08-30T11:48:44;22.70;58.10
40085;DHT22;25786;51.504;7.344;2022-08-30T11:51:18;22.80;58.50
40085;DHT22;25786;51.504;7.344;2022-08-30T11:53:50;22.80;59.30
40085;DHT22;25786;51.504;7.344;2022-08-30T11:56:19;23.00;57.80
40085;DHT22;25786;51.504;7.344;2022-08-30T12:01:32;23.00;58.00
40085;DHT22;25786;51.504;7.344;2022-08-30T12:04:00;23.10;56.90
40085;DHT22;25786;51.504;7.344;2022-08-30T12:09:05;23.10;55.90
40085;DHT22;25786;51.504;7.344;2022-08-30T12:13:57;23.30;55.10
40085;DHT22;25786;51.504;7.344;2022-08-30T12:16:33;23.40;55.20
40085;DHT22;25786;51.504;7.344;2022-08-30T12:19:12;23.60;55.00
40085;DHT22;25786;51.504;7.344;2022-08-30T12:21:39;23.50;53.00
40085;DHT22;25786;51.504;7.344;2022-08-30T12:26:33;23.60;53.00
40085;DHT22;25786;51.504;7.344;2022-08-30T12:34:14;23.60;53.70
40085;DHT22;25786;51.504;7.344;2022-08-30T12:36:49;23.80;53.00
40085;DHT22;25786;51.504;7.344;2022-08-30T12:39:26;23.90;52.80
40085;DHT22;25786;51.504;7.344;2022-08-30T12:41:52;23.90;53.60
40085;DHT22;25786;51.504;7.344;2022-08-30T12:44:21;23.70;53.50
40085;DHT22;25786;51.504;7.344;2022-08-30T12:46:48;23.60;53.80
40085;DHT22;25786;51.504;7.344;2022-08-30T12:49:15;23.60;53.50
40085;DHT22;25786;51.504;7.344;2022-08-30T12:51:42;23.60;53.00
40085;DHT22;25786;51.504;7.344;2022-08-30T12:54:12;23.80;53.10
40085;DHT22;25786;51.504;7.344;2022-08-30T12:56:54;23.80;53.50
40085;DHT22;25786;51.504;7.344;2022-08-30T13:02:10;24.00;51.80
40085;DHT22;25786;51.504;7.344;2022-08-30T13:04:36;24.00;52.10
40085;DHT22;25786;51.504;7.344;2022-08-30T13:07:03;24.00;51.30
40085;DHT22;25786;51.504;7.344;2022-08-30T13:09:30;24.10;51.80
40085;DHT22;25786;51.504;7.344;2022-08-30T13:11:56;24.20;51.90
40085;DHT22;25786;51.504;7.344;2022-08-30T13:19:41;24.10;51.50
40085;DHT22;25786;51.504;7.344;2022-08-30T13:22:42;24.10;50.00
40085;DHT22;25786;51.504;7.344;2022-08-30T13:25:02;24.30;50.60
40085;DHT22;25786;51.504;7.344;2022-08-30T13:27:28;24.20;51.20
40085;DHT22;25786;51.504;7.344;2022-08-30T13:29:53;24.10;52.10
40085;DHT22;25786;51.504;7.344;2022-08-30T13:32:19;24.30;50.20
40085;DHT22;25786;51.504;7.344;2022-08-30T13:34:45;24.50;50.40
40085;DHT22;25786;51.504;7.344;2022-08-30T13:37:12;24.60;49.90
40085;DHT22;25786;51.504;7.344;2022-08-30T13:39:38;24.50;51.00
40085;DHT22;25786;51.504;7.344;2022-08-30T13:42:05;24.20;51.30
40085;DHT22;25786;51.504;7.344;2022-08-30T13:44:30;24.30;51.80
40085;DHT22;25786;51.504;7.344;2022-08-30T13:46:56;24.50;51.70
40085;DHT22;25786;51.504;7.344;2022-08-30T13:49:26;24.40;49.70
40085;DHT22;25786;51.504;7.344;2022-08-30T13:51:52;24.40;51.20
40085;DHT22;25786;51.504;7.344;2022-08-30T13:54:21;24.60;50.10
40085;DHT22;25786;51.504;7.344;2022-08-30T13:56:51;24.50;50.20
40085;DHT22;25786;51.504;7.344;2022-08-30T13:59:17;24.50;49.90
40085;DHT22;25786;51.504;7.344;2022-08-30T14:01:43;24.50;49.90
40085;DHT22;25786;51.504;7.344;2022-08-30T14:04:08;24.50;50.70
40085;DHT22;25786;51.504;7.344;2022-08-30T14:06:34;24.20;51.20
40085;DHT22;25786;51.504;7.344;2022-08-30T14:08:59;24.20;51.00
40085;DHT22;25786;51.504;7.344;2022-08-30T14:11:25;24.40;50.80
40085;DHT22;25786;51.504;7.344;2022-08-30T14:13:50;24.40;50.20
40085;DHT22;25786;51.504;7.344;2022-08-30T14:16:16;24.20;51.40
40085;DHT22;25786;51.504;7.344;2022-08-30T14:18:41;24.30;50.20
40085;DHT22;25786;51.504;7.344;2022-08-30T14:21:07;24.40;50.80
40085;DHT22;25786;51.504;7.344;2022-08-30T14:23:32;24.50;50.20
40085;DHT22;25786;51.504;7.344;2022-08-30T14:25:58;24.40;50.30
40085;DHT22;25786;51.504;7.344;2022-08-30T14:28:24;24.40;50.90
40085;DHT22;25786;51.504;7.344;2022-08-30T14:30:52;24.60;50.30
40085;DHT22;25786;51.504;7.344;2022-08-30T14:33:18;24.50;49.90
40085;DHT22;25786;51.504;7.344;2022-08-30T14:35:43;24.50;49.80
40085;DHT22;25786;51.504;7.344;2022-08-30T14:38:09;24.60;48.70
40085;DHT22;25786;51.504;7.344;2022-08-30T14:40:34;24.50;48.90
40085;DHT22;25786;51.504;7.344;2022-08-30T14:43:00;24.50;49.60
40085;DHT22;25786;51.504;7.344;2022-08-30T14:45:25;24.20;50.00
40085;DHT22;25786;51.504;7.344;2022-08-30T14:47:51;24.00;51.20
40085;DHT22;25786;51.504;7.344;2022-08-30T14:50:16;24.30;49.50
40085;DHT22;25786;51.504;7.344;2022-08-30T14:52:42;24.30;50.00
40085;DHT22;25786;51.504;7.344;2022-08-30T14:55:08;24.10;50.20
40085;DHT22;25786;51.504;7.344;2022-08-30T14:57:35;24.00;50.40
40085;DHT22;25786;51.504;7.344;2022-08-30T15:00:00;24.00;51.10
40085;DHT22;25786;51.504;7.344;2022-08-30T15:02:26;24.10;50.70
40085;DHT22;25786;51.504;7.344;2022-08-30T15:04:51;24.10;50.40
40085;DHT22;25786;51.504;7.344;2022-08-30T15:07:17;24.10;51.10
40085;DHT22;25786;51.504;7.344;2022-08-30T15:09:42;24.10;50.70
40085;DHT22;25786;51.504;7.344;2022-08-30T15:12:08;24.10;51.20
40085;DHT22;25786;51.504;7.344;2022-08-30T15:14:33;24.20;50.30
40085;DHT22;25786;51.504;7.344;2022-08-30T15:16:59;24.20;49.80
40085;DHT22;25786;51.504;7.344;2022-08-30T15:19:27;24.30;50.00
40085;DHT22;25786;51.504;7.344;2022-08-30T15:21:52;24.50;49.40
40085;DHT22;25786;51.504;7.344;2022-08-30T15:24:22;24.50;48.90
40085;DHT22;25786;51.504;7.344;2022-08-30T15:26:47;24.50;49.10
40085;DHT22;25786;51.504;7.344;2022-08-30T15:29:15;24.50;49.00
40085;DHT22;25786;51.504;7.344;2022-08-30T15:31:41;24.50;48.70
40085;DHT22;25786;51.504;7.344;2022-08-30T15:34:08;24.20;49.80
40085;DHT22;25786;51.504;7.344;2022-08-30T15:36:33;24.40;49.00
40085;DHT22;25786;51.504;7.344;2022-08-30T15:38:59;24.30;49.60
40085;DHT22;25786;51.504;7.344;2022-08-30T15:41:25;24.10;49.80
40085;DHT22;25786;51.504;7.344;2022-08-30T15:43:51;24.10;49.70
40085;DHT22;25786;51.504;7.344;2022-08-30T15:46:19;24.30;50.30
40085;DHT22;25786;51.504;7.344;2022-08-30T15:48:47;24.10;49.70
40085;DHT22;25786;51.504;7.344;2022-08-30T15:51:13;24.00;50.20
40085;DHT22;25786;51.504;7.344;2022-08-30T15:53:38;23.90;50.20
40085;DHT22;25786;51.504;7.344;2022-08-30T15:56:04;23.80;50.70
40085;DHT22;25786;51.504;7.344;2022-08-30T15:58:30;23.80;50.90
40085;DHT22;25786;51.504;7.344;2022-08-30T16:00:55;23.90;50.50
40085;DHT22;25786;51.504;7.344;2022-08-30T16:03:21;24.10;49.90
40085;DHT22;25786;51.504;7.344;2022-08-30T16:05:46;24.10;49.70
40085;DHT22;25786;51.504;7.344;2022-08-30T16:08:11;24.10;49.30
40085;DHT22;25786;51.504;7.344;2022-08-30T16:10:37;24.10;49.60
40085;DHT22;25786;51.504;7.344;2022-08-30T16:13:03;24.10;49.00
40085;DHT22;25786;51.504;7.344;2022-08-30T16:15:28;24.10;49.80
40085;DHT22;25786;51.504;7.344;2022-08-30T16:17:54;24.10;49.50
40085;DHT22;25786;51.504;7.344;2022-08-30T16:20:19;24.40;48.50
40085;DHT22;25786;51.504;7.344;2022-08-30T16:22:45;24.50;48.40
40085;DHT22;25786;51.504;7.344;2022-08-30T16:25:10;24.30;48.70
40085;DHT22;25786;51.504;7.344;2022-08-30T16:27:36;24.20;49.00
40085;DHT22;25786;51.504;7.344;2022-08-30T16:30:06;24.20;48.40
40085;DHT22;25786;51.504;7.344;2022-08-30T16:32:31;24.10;49.00
40085;DHT22;25786;51.504;7.344;2022-08-30T16:34:57;24.00;50.30
40085;DHT22;25786;51.504;7.344;2022-08-30T16:37:22;24.00;48.90
40085;DHT22;25786;51.504;7.344;2022-08-30T16:39:48;24.00;49.10
40085;DHT22;25786;51.504;7.344;2022-08-30T16:42:13;24.00;49.10
40085;DHT22;25786;51.504;7.344;2022-08-30T16:44:39;23.90;49.30
40085;DHT22;25786;51.504;7.344;2022-08-30T16:47:04;23.90;48.90